Time;durP1;ratioP1;P1;durP2;ratioP2;P2;SDS_P1;SDS_P2;PMS_P1;PMS_P2;Temp;Humidity;BMP_temperature;BMP_pressure;BME280_temperature;BME280_humidity;BME280_pressure;Samples;Min_cycle;Max_cycle;Signal;HPM_P1;HPM_P2
2023/08/04 00:01:44;;;;;;;6.97;2.55;;;15.80;99.90;;;;;;5031328;28;20509;-46
2023/08/04 00:04:12;;;;;;;5.55;2.33;;;15.80;99.90;;;;;;5032218;28;20038;-51
2023/08/04 00:06:39;;;;;;;3.53;1.90;;;15.90;99.90;;;;;;5028613;28;20095;-47
2023/08/04 00:09:07;;;;;;;4.25;2.10;;;15.90;99.90;;;;;;5023991;28;20143;-51
2023/08/04 00:11:34;;;;;;;5.20;2.00;;;15.80;99.90;;;;;;5027084;28;20136;-45
2023/08/04 00:14:01;;;;;;;5.38;2.00;;;15.80;99.90;;;;;;5026655;28;20498;-43
2023/08/04 00:16:29;;;;;;;4.00;1.85;;;15.80;99.90;;;;;;5026543;28;20068;-44
2023/08/04 00:18:56;;;;;;;3.63;1.80;;;15.70;99.90;;;;;;5028319;28;20033;-50
2023/08/04 00:21:24;;;;;;;4.47;1.90;;;15.70;99.90;;;;;;5029761;28;20046;-44
2023/08/04 00:23:57;;;;;;;4.68;1.90;;;15.70;99.90;;;;;;5033430;28;20033;-44
2023/08/04 00:26:25;;;;;;;3.50;1.90;;;15.70;99.90;;;;;;5028602;28;20068;-49
2023/08/04 00:28:52;;;;;;;9.45;2.00;;;15.70;99.90;;;;;;5026799;28;20123;-44
2023/08/04 00:31:19;;;;;;;3.92;1.90;;;15.70;99.90;;;;;;5025985;28;20136;-44
2023/08/04 00:33:47;;;;;;;3.13;1.83;;;15.80;99.90;;;;;;5026200;28;20054;-47
2023/08/04 00:36:15;;;;;;;5.78;1.77;;;15.70;99.90;;;;;;5018810;28;20045;-46
2023/08/04 00:38:42;;;;;;;4.57;2.00;;;15.70;99.90;;;;;;5029674;28;20400;-44
2023/08/04 00:41:10;;;;;;;3.97;1.80;;;15.70;99.90;;;;;;5025056;28;20052;-46
2023/08/04 00:43:37;;;;;;;3.72;2.03;;;15.70;99.90;;;;;;5026525;28;20503;-46
2023/08/04 00:46:04;;;;;;;4.57;2.10;;;15.70;99.90;;;;;;5026227;28;20096;-45
2023/08/04 00:48:32;;;;;;;3.67;1.70;;;15.70;99.90;;;;;;5032674;28;20505;-45
2023/08/04 00:51:00;;;;;;;5.25;1.75;;;15.60;99.90;;;;;;5031004;28;20041;-43
2023/08/04 00:53:27;;;;;;;4.63;2.00;;;15.70;99.90;;;;;;5031552;28;20103;-44
2023/08/04 00:55:54;;;;;;;5.22;1.80;;;15.60;99.90;;;;;;5029715;28;20504;-43
2023/08/04 00:58:22;;;;;;;4.20;1.85;;;15.60;99.90;;;;;;5030587;28;20414;-49
2023/08/04 01:00:50;;;;;;;4.40;1.90;;;15.60;99.90;;;;;;5029520;28;20045;-48
2023/08/04 01:03:17;;;;;;;3.38;1.58;;;15.60;99.90;;;;;;5030894;28;20132;-47
2023/08/04 01:06:06;;;;;;;3.67;1.80;;;15.60;99.90;;;;;;5025947;28;20046;-46
2023/08/04 01:08:35;;;;;;;6.38;2.03;;;15.50;99.90;;;;;;5028078;28;20045;-51
2023/08/04 01:11:12;;;;;;;3.03;1.80;;;15.60;99.90;;;;;;5028356;28;20478;-42
2023/08/04 01:13:42;;;;;;;3.60;1.95;;;15.50;99.90;;;;;;5029703;28;20079;-47
2023/08/04 01:16:11;;;;;;;3.70;1.73;;;15.50;99.90;;;;;;5030065;28;20084;-46
2023/08/04 01:18:39;;;;;;;5.03;1.77;;;15.40;99.90;;;;;;5030659;28;20525;-43
2023/08/04 01:21:06;;;;;;;3.75;1.70;;;15.40;99.90;;;;;;5029414;28;20130;-49
2023/08/04 01:23:34;;;;;;;4.25;1.88;;;15.40;99.90;;;;;;5029893;28;20510;-47
2023/08/04 01:26:03;;;;;;;4.97;2.38;;;15.40;99.90;;;;;;5029508;28;20099;-45
2023/08/04 01:28:33;;;;;;;3.85;1.90;;;15.40;99.90;;;;;;5023962;28;20107;-46
2023/08/04 01:31:01;;;;;;;5.18;2.03;;;15.40;99.90;;;;;;5031176;28;20091;-44
2023/08/04 01:33:29;;;;;;;2.53;1.60;;;15.40;99.90;;;;;;5029472;28;20077;-47
2023/08/04 01:35:57;;;;;;;4.70;2.00;;;15.30;99.90;;;;;;5027980;28;20050;-48
2023/08/04 01:38:24;;;;;;;2.97;1.73;;;15.30;99.90;;;;;;5029833;28;20129;-44
2023/08/04 01:40:51;;;;;;;4.40;1.88;;;15.30;99.90;;;;;;5014925;28;20041;-47
2023/08/04 01:43:20;;;;;;;5.05;1.73;;;15.30;99.90;;;;;;5029759;28;20124;-45
2023/08/04 01:45:48;;;;;;;2.90;1.60;;;15.30;99.90;;;;;;5028534;28;20054;-46
2023/08/04 01:48:16;;;;;;;5.65;2.03;;;15.30;99.90;;;;;;5029860;28;20463;-45
2023/08/04 01:50:43;;;;;;;4.00;1.85;;;15.20;99.90;;;;;;5029243;28;20041;-42
2023/08/04 01:53:11;;;;;;;7.13;2.17;;;15.20;99.90;;;;;;5028905;28;20053;-45
2023/08/04 01:55:38;;;;;;;4.78;1.77;;;15.20;99.90;;;;;;5027649;28;20497;-46
2023/08/04 01:58:06;;;;;;;4.00;2.00;;;15.10;99.90;;;;;;5026588;28;20041;-45
2023/08/04 02:00:33;;;;;;;4.43;1.80;;;15.20;99.90;;;;;;5028281;28;20041;-45
2023/08/04 02:03:00;;;;;;;4.20;2.05;;;15.10;99.90;;;;;;5028013;28;20060;-47
2023/08/04 02:05:28;;;;;;;4.22;1.92;;;15.10;99.90;;;;;;5027520;28;20042;-46
2023/08/04 02:07:55;;;;;;;7.90;1.80;;;15.10;99.90;;;;;;5026310;28;20053;-44
2023/08/04 02:10:27;;;;;;;4.82;1.73;;;15.10;99.90;;;;;;5028754;28;20104;-46
2023/08/04 02:12:55;;;;;;;4.22;1.85;;;15.10;99.90;;;;;;5028776;28;20072;-43
2023/08/04 02:15:22;;;;;;;3.90;1.70;;;15.10;99.90;;;;;;5028827;28;20056;-40
2023/08/04 02:17:49;;;;;;;3.53;1.88;;;15.00;99.90;;;;;;5028987;28;20049;-42
2023/08/04 02:20:17;;;;;;;4.35;1.90;;;15.00;99.90;;;;;;5028359;28;20632;-43
2023/08/04 02:22:45;;;;;;;5.47;1.80;;;15.00;99.90;;;;;;5030002;28;20060;-46
2023/08/04 02:25:12;;;;;;;7.25;1.70;;;15.00;99.90;;;;;;5021728;28;20046;-48
2023/08/04 02:27:39;;;;;;;5.88;1.88;;;15.00;99.90;;;;;;5028271;28;20053;-44
2023/08/04 02:30:08;;;;;;;5.72;1.80;;;15.00;99.90;;;;;;5027115;28;20060;-49
2023/08/04 02:32:36;;;;;;;5.90;1.92;;;15.00;99.90;;;;;;5029104;28;20458;-44
2023/08/04 02:35:03;;;;;;;2.92;1.58;;;14.90;99.90;;;;;;5029282;28;20410;-45
2023/08/04 02:37:31;;;;;;;3.20;1.70;;;14.90;99.90;;;;;;5030582;28;20080;-46
2023/08/04 02:39:58;;;;;;;4.40;1.77;;;14.80;99.90;;;;;;5026542;28;20068;-45
2023/08/04 02:42:26;;;;;;;5.20;1.70;;;14.80;99.90;;;;;;5026829;28;20122;-45
2023/08/04 02:44:54;;;;;;;4.82;1.80;;;14.90;99.90;;;;;;5027572;28;20038;-44
2023/08/04 02:47:22;;;;;;;4.20;1.73;;;14.80;99.90;;;;;;5027360;28;20057;-45
2023/08/04 02:49:49;;;;;;;4.55;2.00;;;14.80;99.90;;;;;;5028428;28;20096;-44
2023/08/04 02:52:17;;;;;;;5.38;1.98;;;14.70;99.90;;;;;;5027229;28;20076;-48
2023/08/04 02:54:44;;;;;;;4.72;1.60;;;14.60;99.90;;;;;;5028510;28;20053;-44
2023/08/04 02:57:11;;;;;;;3.53;1.80;;;14.60;99.90;;;;;;5028129;28;20475;-43
2023/08/04 02:59:39;;;;;;;4.72;2.05;;;14.60;99.90;;;;;;5029434;28;20056;-42
2023/08/04 03:02:06;;;;;;;7.10;1.80;;;14.60;99.90;;;;;;5027887;28;20056;-48
2023/08/04 03:04:34;;;;;;;5.57;1.80;;;14.50;99.90;;;;;;5028516;28;20049;-49
2023/08/04 03:07:01;;;;;;;3.88;1.80;;;14.50;99.90;;;;;;5027600;28;20137;-47
2023/08/04 03:09:28;;;;;;;2.40;1.63;;;14.50;99.90;;;;;;5025766;28;20377;-48
2023/08/04 03:11:56;;;;;;;5.15;1.85;;;14.50;99.90;;;;;;5028226;28;20132;-45
2023/08/04 03:14:23;;;;;;;5.68;1.75;;;14.50;99.90;;;;;;5027638;28;20049;-43
2023/08/04 03:16:50;;;;;;;4.13;1.65;;;14.60;99.90;;;;;;5027915;28;20522;-49
2023/08/04 03:19:18;;;;;;;4.57;1.80;;;14.60;99.90;;;;;;5026490;28;20045;-51
2023/08/04 03:21:45;;;;;;;6.20;1.80;;;14.70;99.90;;;;;;5032318;28;20110;-43
2023/08/04 03:24:13;;;;;;;4.05;1.77;;;14.70;99.90;;;;;;5021939;28;20455;-44
2023/08/04 03:26:40;;;;;;;5.20;1.90;;;14.70;99.90;;;;;;5026322;28;20044;-50
2023/08/04 03:29:07;;;;;;;3.53;2.00;;;14.70;99.90;;;;;;5025144;28;20437;-46
2023/08/04 03:31:35;;;;;;;3.42;1.80;;;14.80;99.90;;;;;;5032226;28;20460;-44
2023/08/04 03:34:02;;;;;;;3.08;1.70;;;14.80;99.90;;;;;;5028484;28;20049;-50
2023/08/04 03:36:31;;;;;;;4.88;2.10;;;14.80;99.90;;;;;;5027746;28;20073;-44
2023/08/04 03:38:58;;;;;;;4.70;1.80;;;14.80;99.90;;;;;;5028380;28;20129;-46
2023/08/04 03:41:25;;;;;;;4.97;1.80;;;14.80;99.90;;;;;;5027812;28;20050;-47
2023/08/04 03:43:53;;;;;;;5.05;2.03;;;14.90;99.90;;;;;;5028054;28;20045;-47
2023/08/04 03:46:20;;;;;;;6.50;2.00;;;14.90;99.90;;;;;;5025910;28;20050;-45
2023/08/04 03:48:47;;;;;;;5.78;1.92;;;14.90;99.90;;;;;;5027156;28;20429;-51
2023/08/04 03:51:17;;;;;;;5.38;2.15;;;15.00;99.90;;;;;;5026774;28;20049;-45
2023/08/04 03:53:45;;;;;;;4.90;1.90;;;15.00;99.90;;;;;;5025929;28;20077;-46
2023/08/04 03:56:12;;;;;;;3.25;1.80;;;15.00;99.90;;;;;;5025645;28;20586;-44
2023/08/04 03:58:39;;;;;;;4.40;1.77;;;15.00;99.90;;;;;;5027007;28;20056;-47
2023/08/04 04:01:07;;;;;;;6.05;2.20;;;15.00;99.90;;;;;;5025071;28;20136;-44
2023/08/04 04:03:35;;;;;;;5.60;1.80;;;15.00;99.90;;;;;;5027710;28;20045;-44
2023/08/04 04:06:02;;;;;;;3.72;1.85;;;15.00;99.90;;;;;;5024982;28;20060;-45
2023/08/04 04:08:30;;;;;;;3.47;1.77;;;15.10;99.90;;;;;;5027844;28;20131;-50
2023/08/04 04:10:57;;;;;;;3.80;1.98;;;15.10;99.90;;;;;;5023233;28;20045;-45
2023/08/04 04:13:24;;;;;;;4.32;1.90;;;15.10;99.90;;;;;;5027673;28;20108;-43
2023/08/04 04:15:52;;;;;;;7.70;2.50;;;15.10;99.90;;;;;;5026370;28;20602;-46
2023/08/04 04:18:19;;;;;;;4.93;2.00;;;15.10;99.90;;;;;;5027126;28;20053;-45
2023/08/04 04:20:46;;;;;;;3.33;2.08;;;15.20;99.90;;;;;;5026487;28;20052;-47
2023/08/04 04:23:13;;;;;;;5.80;2.40;;;15.20;99.90;;;;;;5020735;28;20073;-43
2023/08/04 04:25:41;;;;;;;5.10;1.73;;;15.20;99.90;;;;;;5025653;28;20067;-47
2023/08/04 04:28:08;;;;;;;4.65;1.92;;;15.20;99.90;;;;;;5027166;28;20398;-47
2023/08/04 04:30:35;;;;;;;4.78;2.40;;;15.30;99.90;;;;;;5026287;28;20166;-54
2023/08/04 04:33:03;;;;;;;6.55;2.10;;;15.30;99.90;;;;;;5025968;28;20057;-47
2023/08/04 04:35:30;;;;;;;4.55;2.45;;;15.30;99.90;;;;;;5027672;28;20045;-46
2023/08/04 04:37:57;;;;;;;5.13;2.28;;;15.40;99.90;;;;;;5026611;28;20522;-44
2023/08/04 04:40:25;;;;;;;5.75;1.90;;;15.40;99.90;;;;;;5027656;28;20045;-46
2023/08/04 04:42:52;;;;;;;4.38;2.20;;;15.40;99.90;;;;;;5026622;28;20045;-46
2023/08/04 04:45:20;;;;;;;6.72;2.25;;;15.50;99.90;;;;;;5026541;28;20099;-46
2023/08/04 04:47:47;;;;;;;4.50;2.38;;;15.50;99.90;;;;;;5026234;28;20141;-45
2023/08/04 04:50:14;;;;;;;4.70;2.40;;;15.60;99.90;;;;;;5028126;28;20053;-45
2023/08/04 04:52:42;;;;;;;5.93;2.08;;;15.60;99.90;;;;;;5032646;28;20067;-44
2023/08/04 04:55:09;;;;;;;4.15;2.15;;;15.60;99.90;;;;;;5029537;28;20060;-48
2023/08/04 04:57:40;;;;;;;3.90;1.80;;;15.70;99.90;;;;;;5031712;28;20037;-45
2023/08/04 05:00:09;;;;;;;7.07;2.35;;;15.70;99.90;;;;;;5026716;28;20566;-48
2023/08/04 05:02:36;;;;;;;5.55;1.88;;;15.70;99.90;;;;;;5026205;28;20064;-49
2023/08/04 05:05:04;;;;;;;5.47;1.83;;;15.70;99.90;;;;;;5025646;28;20395;-46
2023/08/04 05:07:31;;;;;;;4.95;1.92;;;15.80;99.90;;;;;;5025018;28;20041;-48
2023/08/04 05:09:58;;;;;;;4.75;2.17;;;15.80;99.90;;;;;;5026400;28;20147;-42
2023/08/04 05:12:26;;;;;;;6.03;2.22;;;15.90;99.90;;;;;;5024907;28;20065;-45
2023/08/04 05:14:53;;;;;;;6.90;2.28;;;15.90;99.90;;;;;;5025045;28;20100;-47
2023/08/04 05:17:20;;;;;;;5.15;2.35;;;15.90;99.90;;;;;;5021065;28;20052;-45
2023/08/04 05:19:48;;;;;;;5.68;2.38;;;15.90;99.90;;;;;;5025401;28;20049;-45
2023/08/04 05:22:15;;;;;;;6.95;2.38;;;15.90;99.90;;;;;;5021722;28;20044;-40
2023/08/04 05:24:42;;;;;;;6.63;2.35;;;16.00;99.90;;;;;;5024973;28;20468;-47
2023/08/04 05:27:12;;;;;;;6.45;2.42;;;16.00;99.90;;;;;;5026041;28;20115;-48
2023/08/04 05:29:39;;;;;;;5.43;2.13;;;15.90;99.90;;;;;;5025066;28;20136;-45
2023/08/04 05:32:07;;;;;;;9.75;5.47;;;16.00;99.90;;;;;;5026096;28;20054;-44
2023/08/04 05:34:34;;;;;;;6.97;3.78;;;16.10;99.90;;;;;;5030912;28;20129;-43
2023/08/04 05:37:02;;;;;;;7.03;4.07;;;16.20;99.90;;;;;;5029208;28;20056;-45
2023/08/04 05:39:29;;;;;;;6.53;3.40;;;16.30;99.90;;;;;;5028286;28;20609;-49
2023/08/04 05:41:56;;;;;;;7.53;3.72;;;16.50;99.90;;;;;;5027049;28;20065;-46
2023/08/04 05:44:24;;;;;;;7.03;3.13;;;16.60;99.90;;;;;;5029746;28;20451;-42
2023/08/04 05:46:51;;;;;;;6.07;3.42;;;16.70;99.90;;;;;;5030476;28;20046;-44
2023/08/04 05:49:19;;;;;;;9.57;3.55;;;16.90;99.90;;;;;;5026428;28;20585;-46
2023/08/04 05:51:46;;;;;;;6.97;3.42;;;17.10;99.90;;;;;;5029140;28;20141;-43
2023/08/04 05:54:14;;;;;;;4.47;2.42;;;17.20;99.90;;;;;;5024202;28;20477;-45
2023/08/04 05:56:41;;;;;;;6.32;2.92;;;17.30;99.90;;;;;;5029294;28;20077;-48
2023/08/04 05:59:09;;;;;;;6.40;2.63;;;17.50;99.90;;;;;;5026817;28;20323;-48
2023/08/04 06:01:36;;;;;;;21.55;6.13;;;17.60;99.90;;;;;;5026411;28;20069;-45
2023/08/04 06:04:04;;;;;;;25.35;6.63;;;17.70;99.90;;;;;;5026602;28;20045;-48
2023/08/04 06:06:31;;;;;;;10.05;4.03;;;17.80;99.90;;;;;;5027692;28;20066;-49
2023/08/04 06:08:59;;;;;;;6.85;3.28;;;17.80;99.90;;;;;;5026314;28;20122;-47
2023/08/04 06:11:27;;;;;;;7.95;2.60;;;18.00;99.90;;;;;;5020077;28;20446;-48
2023/08/04 06:13:54;;;;;;;7.93;2.95;;;18.20;99.90;;;;;;5027410;28;20076;-46
2023/08/04 06:16:22;;;;;;;5.85;2.53;;;18.30;99.90;;;;;;5030308;28;20059;-45
2023/08/04 06:18:49;;;;;;;4.45;2.63;;;18.20;99.90;;;;;;5027650;28;20370;-52
2023/08/04 06:21:16;;;;;;;5.80;2.40;;;18.20;99.90;;;;;;5029485;28;20132;-45
2023/08/04 06:23:45;;;;;;;5.85;3.17;;;18.30;99.90;;;;;;5027580;28;20038;-48
2023/08/04 06:26:13;;;;;;;9.10;3.15;;;18.50;99.90;;;;;;5028490;28;20052;-46
2023/08/04 06:28:40;;;;;;;7.22;3.28;;;18.40;99.90;;;;;;5029281;28;20038;-46
2023/08/04 06:31:08;;;;;;;7.28;3.03;;;18.40;99.90;;;;;;5028318;28;20053;-50
2023/08/04 06:33:35;;;;;;;6.10;3.47;;;18.50;99.90;;;;;;5025374;28;20045;-54
2023/08/04 06:36:03;;;;;;;11.18;3.40;;;18.40;99.90;;;;;;5031980;28;20060;-46
2023/08/04 06:38:30;;;;;;;8.50;4.05;;;18.60;99.90;;;;;;5036380;28;20037;-49
2023/08/04 06:40:59;;;;;;;10.75;4.20;;;18.70;99.90;;;;;;5027665;28;20099;-46
2023/08/04 06:43:27;;;;;;;8.10;4.00;;;18.80;99.90;;;;;;5029280;28;20049;-45
2023/08/04 06:45:54;;;;;;;6.30;3.30;;;18.90;99.90;;;;;;5022605;28;20589;-53
2023/08/04 06:48:24;;;;;;;6.45;3.20;;;19.10;99.90;;;;;;5023036;28;20045;-43
2023/08/04 06:50:52;;;;;;;6.20;3.30;;;19.10;99.90;;;;;;5026257;28;20141;-45
2023/08/04 06:53:19;;;;;;;6.32;3.13;;;19.40;99.90;;;;;;5028921;28;20077;-44
2023/08/04 06:55:46;;;;;;;7.32;3.30;;;19.20;99.90;;;;;;5027799;28;20160;-45
2023/08/04 06:58:14;;;;;;;5.88;3.03;;;19.40;99.90;;;;;;5022195;28;20045;-46
2023/08/04 07:00:41;;;;;;;5.60;2.90;;;19.50;99.90;;;;;;5026313;28;20048;-47
2023/08/04 07:03:11;;;;;;;9.60;3.10;;;19.50;99.90;;;;;;5027883;28;20510;-46
2023/08/04 07:05:40;;;;;;;7.77;2.83;;;19.60;99.90;;;;;;5028983;28;20056;-46
2023/08/04 07:08:07;;;;;;;8.43;3.17;;;19.80;99.90;;;;;;5027403;28;20132;-50
2023/08/04 07:10:37;;;;;;;6.85;2.90;;;19.60;99.90;;;;;;5028067;28;20153;-47
2023/08/04 07:13:04;;;;;;;7.68;3.33;;;19.50;99.90;;;;;;5027999;28;20410;-46
2023/08/04 07:15:35;;;;;;;5.03;2.40;;;19.40;99.90;;;;;;5027182;28;20048;-50
2023/08/04 07:18:02;;;;;;;6.90;2.40;;;19.40;99.90;;;;;;5026272;28;20058;-46
2023/08/04 07:20:31;;;;;;;5.35;2.65;;;19.60;99.90;;;;;;5026697;28;20044;-45
2023/08/04 07:22:58;;;;;;;4.53;2.45;;;19.50;99.90;;;;;;5028093;28;20097;-43
2023/08/04 07:25:26;;;;;;;10.68;5.00;;;18.90;99.90;;;;;;5028525;28;20103;-49
2023/08/04 07:27:53;;;;;;;7.95;2.92;;;18.90;99.90;;;;;;5026013;28;20092;-44
2023/08/04 07:30:20;;;;;;;6.57;3.03;;;18.90;99.90;;;;;;5026955;28;20486;-45
2023/08/04 07:32:48;;;;;;;5.30;2.55;;;19.10;99.90;;;;;;5027454;28;20053;-50
2023/08/04 07:35:15;;;;;;;6.40;2.83;;;19.10;99.90;;;;;;5022449;28;20053;-43
2023/08/04 07:37:44;;;;;;;9.02;2.92;;;19.20;99.90;;;;;;5028722;28;20045;-44
2023/08/04 07:40:13;;;;;;;5.47;2.85;;;19.20;99.90;;;;;;5028103;28;20048;-48
2023/08/04 07:42:42;;;;;;;6.03;2.40;;;18.80;99.90;;;;;;5026791;28;20065;-48
2023/08/04 07:45:09;;;;;;;5.10;2.30;;;18.70;99.90;;;;;;5027590;28;20061;-47
2023/08/04 07:47:36;;;;;;;9.43;2.70;;;18.60;99.90;;;;;;5027982;28;20040;-46
2023/08/04 07:50:04;;;;;;;6.90;2.58;;;18.70;99.90;;;;;;5027172;28;20060;-48
2023/08/04 07:52:32;;;;;;;5.47;2.30;;;18.90;99.90;;;;;;5022908;28;20046;-46
2023/08/04 07:54:59;;;;;;;3.47;2.30;;;19.10;99.90;;;;;;5025713;28;20053;-45
2023/08/04 07:57:26;;;;;;;4.93;2.22;;;19.30;99.90;;;;;;5026796;28;20045;-50
2023/08/04 07:59:54;;;;;;;6.70;2.40;;;19.20;99.90;;;;;;5025310;28;20126;-45
2023/08/04 08:02:21;;;;;;;4.00;2.38;;;19.30;99.90;;;;;;5023939;28;20122;-49
2023/08/04 08:04:48;;;;;;;5.47;2.28;;;19.20;99.90;;;;;;5026578;28;20132;-48
2023/08/04 08:07:15;;;;;;;4.57;2.33;;;19.10;99.90;;;;;;5028406;28;20479;-45
2023/08/04 08:09:44;;;;;;;4.68;2.42;;;19.00;99.90;;;;;;5025825;28;20073;-49
2023/08/04 08:12:12;;;;;;;4.93;2.38;;;19.20;99.90;;;;;;5026291;28;20076;-46
2023/08/04 08:14:39;;;;;;;4.03;2.38;;;19.30;99.90;;;;;;5024999;28;20060;-49
2023/08/04 08:17:06;;;;;;;6.28;3.33;;;19.30;99.90;;;;;;5026799;28;20087;-45
2023/08/04 08:19:34;;;;;;;3.85;2.33;;;19.40;99.90;;;;;;5027828;28;20484;-45
2023/08/04 08:22:01;;;;;;;4.70;2.40;;;19.50;99.90;;;;;;5025321;28;20481;-47
2023/08/04 08:24:28;;;;;;;6.97;2.47;;;19.60;99.90;;;;;;5026421;28;20077;-48
2023/08/04 08:26:56;;;;;;;5.88;2.40;;;19.80;99.90;;;;;;5025225;28;20114;-46
2023/08/04 08:29:23;;;;;;;3.20;2.40;;;19.80;99.90;;;;;;5023242;28;20053;-48
2023/08/04 08:31:50;;;;;;;4.22;2.30;;;19.90;99.90;;;;;;5024546;28;20072;-44
2023/08/04 08:34:18;;;;;;;4.72;2.22;;;19.70;99.90;;;;;;5027242;28;20120;-48
2023/08/04 08:36:45;;;;;;;3.63;2.47;;;19.80;99.90;;;;;;5028047;28;20480;-47
2023/08/04 08:39:13;;;;;;;3.10;2.28;;;20.00;99.90;;;;;;5027862;28;20119;-48
2023/08/04 08:41:40;;;;;;;3.45;2.40;;;20.30;99.90;;;;;;5028583;28;20054;-49
2023/08/04 08:44:09;;;;;;;4.70;2.65;;;20.30;99.90;;;;;;5026765;28;20041;-48
2023/08/04 08:46:37;;;;;;;5.30;2.58;;;20.30;99.90;;;;;;5025772;28;20514;-46
2023/08/04 08:49:05;;;;;;;4.82;2.38;;;20.50;99.90;;;;;;5026607;28;20076;-44
2023/08/04 08:51:35;;;;;;;4.13;2.25;;;20.40;99.90;;;;;;5026919;28;20165;-46
2023/08/04 08:54:03;;;;;;;4.90;2.45;;;20.40;99.90;;;;;;5024164;28;20088;-51
2023/08/04 08:56:30;;;;;;;3.53;2.10;;;20.40;99.90;;;;;;5026209;28;20052;-49
2023/08/04 08:58:58;;;;;;;9.90;2.70;;;20.50;99.90;;;;;;5026191;28;20324;-50
2023/08/04 09:01:25;;;;;;;3.22;2.08;;;20.70;99.90;;;;;;5026865;28;20482;-46
2023/08/04 09:03:53;;;;;;;6.15;2.55;;;20.80;99.90;;;;;;5027325;28;20426;-47
2023/08/04 09:06:21;;;;;;;4.30;2.90;;;20.90;99.90;;;;;;5023287;28;20053;-48
2023/08/04 09:08:48;;;;;;;4.30;2.85;;;21.10;99.90;;;;;;5027465;28;20037;-48
2023/08/04 09:11:16;;;;;;;3.80;2.90;;;21.50;99.90;;;;;;5030873;28;20482;-46
2023/08/04 09:13:45;;;;;;;4.15;2.88;;;21.40;99.90;;;;;;5028129;28;20045;-46
2023/08/04 09:16:13;;;;;;;4.43;2.88;;;21.20;99.90;;;;;;5029734;28;20520;-47
2023/08/04 09:18:40;;;;;;;4.43;2.70;;;21.20;99.90;;;;;;5031849;28;20069;-50
2023/08/04 09:21:07;;;;;;;3.08;2.63;;;21.10;99.90;;;;;;5027421;28;20144;-46
2023/08/04 09:23:36;;;;;;;2.83;2.45;;;21.00;99.90;;;;;;5029986;28;20060;-53
2023/08/04 09:26:04;;;;;;;6.10;2.60;;;21.20;99.90;;;;;;5029715;28;20119;-45
2023/08/04 09:28:31;;;;;;;5.60;2.63;;;21.20;99.90;;;;;;5029744;28;20175;-50
2023/08/04 09:31:12;;;;;;;4.60;2.45;;;21.30;99.90;;;;;;5029319;28;20409;-48
2023/08/04 09:33:41;;;;;;;3.90;2.75;;;21.60;99.90;;;;;;5026781;28;20057;-48
2023/08/04 09:36:11;;;;;;;4.88;2.40;;;22.00;99.90;;;;;;5029692;28;20050;-48
2023/08/04 09:38:40;;;;;;;3.83;2.45;;;22.30;99.90;;;;;;5029412;28;20042;-45
2023/08/04 09:41:09;;;;;;;3.70;2.50;;;22.70;99.90;;;;;;5028634;28;20096;-45
2023/08/04 09:43:49;;;;;;;4.43;2.88;;;23.20;99.90;;;;;;5029111;28;20049;-50
2023/08/04 09:46:17;;;;;;;4.97;2.53;;;23.60;99.90;;;;;;5028716;28;20584;-43
2023/08/04 09:48:46;;;;;;;5.68;3.15;;;23.70;99.90;;;;;;5029642;28;20517;-48
2023/08/04 09:51:15;;;;;;;4.25;2.97;;;23.70;99.90;;;;;;5024522;28;20069;-43
2023/08/04 09:53:45;;;;;;;3.95;3.20;;;23.40;99.90;;;;;;5031172;28;20044;-44
2023/08/04 09:56:14;;;;;;;2.97;2.50;;;23.70;99.90;;;;;;5028554;28;20053;-46
2023/08/04 09:58:43;;;;;;;4.25;2.60;;;23.50;99.90;;;;;;5029305;28;20049;-52
2023/08/04 10:01:12;;;;;;;2.92;2.45;;;23.30;99.90;;;;;;5028498;28;20080;-47
2023/08/04 10:03:43;;;;;;;5.45;2.60;;;23.10;99.90;;;;;;5029972;28;20041;-46
2023/08/04 10:06:11;;;;;;;;;;;22.90;99.90;;;;;;5029459;28;20517;-44
2023/08/04 10:08:40;;;;;;;8.77;3.00;;;23.00;99.90;;;;;;5029712;28;20146;-46
2023/08/04 10:11:09;;;;;;;3.25;2.50;;;23.30;99.90;;;;;;5029162;28;20064;-48
2023/08/04 10:13:41;;;;;;;4.00;2.63;;;23.60;99.90;;;;;;5028330;28;20049;-46
2023/08/04 10:16:17;;;;;;;4.07;2.95;;;23.90;99.90;;;;;;5029656;28;20053;-46
2023/08/04 10:18:50;;;;;;;6.13;2.95;;;23.20;99.90;;;;;;5028716;28;20064;-50
2023/08/04 10:21:25;;;;;;;3.45;2.47;;;23.20;99.90;;;;;;5029453;28;20061;-45
2023/08/04 10:23:52;;;;;;;4.57;2.60;;;23.20;99.90;;;;;;5028838;28;20103;-44
2023/08/04 10:26:20;;;;;;;4.03;2.88;;;22.90;99.90;;;;;;5029297;28;20459;-45
2023/08/04 10:29:03;;;;;;;3.72;2.50;;;22.70;99.90;;;;;;5029390;28;20069;-45
2023/08/04 10:31:55;;;;;;;3.35;2.35;;;22.30;99.90;;;;;;5029115;28;20046;-48
2023/08/04 10:34:37;;;;;;;3.53;2.40;;;22.00;99.90;;;;;;5029309;28;20051;-42
2023/08/04 10:37:15;;;;;;;4.95;2.70;;;22.10;99.90;;;;;;5029546;28;20041;-43
2023/08/04 10:39:48;;;;;;;4.97;2.58;;;22.20;99.90;;;;;;5028297;28;20284;-45
2023/08/04 10:42:22;;;;;;;5.38;2.90;;;22.30;99.90;;;;;;5023066;28;20130;-49
2023/08/04 10:44:54;;;;;;;3.92;2.80;;;22.60;99.90;;;;;;5026847;28;20246;-47
2023/08/04 10:47:32;;;;;;;;;;;22.70;99.90;;;;;;5028330;28;20049;-49
2023/08/04 10:50:00;;;;;;;4.32;2.60;;;22.80;99.90;;;;;;5027121;28;19925;-45
2023/08/04 10:52:28;;;;;;;3.53;2.70;;;22.80;99.90;;;;;;5029719;28;20136;-46
2023/08/04 10:54:58;;;;;;;4.20;3.20;;;22.80;99.90;;;;;;5027656;28;20099;-50
2023/08/04 10:57:33;;;;;;;5.20;2.90;;;22.70;99.90;;;;;;5028831;28;20110;-50
2023/08/04 11:00:02;;;;;;;6.22;2.97;;;22.70;99.90;;;;;;5027208;28;20143;-47
2023/08/04 11:02:31;;;;;;;3.55;2.65;;;22.70;99.90;;;;;;5028981;28;20398;-44
2023/08/04 11:04:59;;;;;;;5.97;3.22;;;22.70;99.90;;;;;;5028168;28;20375;-44
2023/08/04 11:07:27;;;;;;;5.82;2.75;;;22.60;99.90;;;;;;5030155;28;20044;-46
2023/08/04 11:09:55;;;;;;;7.05;2.88;;;22.50;99.90;;;;;;5027828;28;20068;-49
2023/08/04 11:12:22;;;;;;;6.20;2.65;;;22.50;99.90;;;;;;5028747;28;20068;-41
2023/08/04 11:14:50;;;;;;;5.70;3.03;;;22.40;99.90;;;;;;5029175;28;20135;-45
2023/08/04 11:17:20;;;;;;;3.40;2.65;;;22.40;99.90;;;;;;5029957;28;20103;-44
2023/08/04 11:19:49;;;;;;;4.10;3.00;;;22.80;99.90;;;;;;5029741;28;20068;-47
2023/08/04 11:22:26;;;;;;;4.13;3.13;;;23.00;99.90;;;;;;5037041;28;20057;-42
2023/08/04 11:24:53;;;;;;;5.57;2.80;;;23.50;99.90;;;;;;5028311;28;20072;-47
2023/08/04 11:27:20;;;;;;;5.25;2.90;;;23.70;99.90;;;;;;5028324;28;20049;-44
2023/08/04 11:29:54;;;;;;;6.85;3.00;;;23.80;99.90;;;;;;5026995;28;20119;-49
2023/08/04 11:32:25;;;;;;;6.25;3.53;;;24.00;99.90;;;;;;5025914;28;20167;-48
2023/08/04 11:34:54;;;;;;;4.68;3.35;;;24.00;99.90;;;;;;5029971;28;20067;-45
2023/08/04 11:37:23;;;;;;;6.75;3.17;;;24.00;99.90;;;;;;5029162;28;20077;-51
2023/08/04 11:39:51;;;;;;;4.43;3.13;;;24.00;99.90;;;;;;5028760;28;20140;-42
2023/08/04 11:42:18;;;;;;;4.75;3.17;;;23.90;99.90;;;;;;5029058;28;20430;-43
2023/08/04 11:44:45;;;;;;;4.50;3.15;;;23.90;99.90;;;;;;5028991;28;20054;-48
2023/08/04 11:47:15;;;;;;;5.75;3.15;;;23.80;99.90;;;;;;5028330;28;20042;-46
2023/08/04 11:49:43;;;;;;;4.53;3.15;;;23.90;99.90;;;;;;5028015;28;20052;-47
2023/08/04 11:52:13;;;;;;;5.68;3.30;;;23.90;99.90;;;;;;5026984;28;20238;-44
2023/08/04 11:54:54;;;;;;;4.00;2.90;;;24.00;99.90;;;;;;5027032;28;20356;-43
2023/08/04 11:57:22;;;;;;;6.33;2.70;;;23.60;99.90;;;;;;5026490;28;20584;-52
2023/08/04 11:59:52;;;;;;;4.20;2.95;;;23.50;99.90;;;;;;5026926;28;20288;-50
2023/08/04 12:02:21;;;;;;;4.50;2.80;;;23.50;99.90;;;;;;5028745;28;20434;-43
2023/08/04 12:05:05;;;;;;;6.38;2.90;;;23.20;99.90;;;;;;5026748;28;20126;-45
2023/08/04 12:07:33;;;;;;;4.35;2.70;;;22.80;99.90;;;;;;5028661;28;20327;-44
2023/08/04 12:10:01;;;;;;;4.65;3.05;;;22.80;99.90;;;;;;5026339;28;20406;-44
2023/08/04 12:12:39;;;;;;;5.80;3.05;;;23.10;99.90;;;;;;5027143;28;20462;-44
2023/08/04 12:15:07;;;;;;;4.13;3.17;;;22.90;99.90;;;;;;5026583;28;20502;-52
2023/08/04 12:17:39;;;;;;;4.75;2.80;;;23.10;99.90;;;;;;5027764;28;20525;-52
2023/08/04 12:20:08;;;;;;;4.05;2.83;;;23.30;99.90;;;;;;5027039;28;20235;-44
2023/08/04 12:22:41;;;;;;;6.85;3.00;;;23.20;99.90;;;;;;5025773;28;20111;-45
2023/08/04 12:25:09;;;;;;;8.50;3.35;;;23.20;99.90;;;;;;5027079;28;20095;-48
2023/08/04 12:27:37;;;;;;;5.30;2.92;;;23.20;99.90;;;;;;5026043;28;20608;-47
2023/08/04 12:30:05;;;;;;;4.22;3.15;;;23.60;99.90;;;;;;5025787;28;20046;-47
2023/08/04 12:32:33;;;;;;;4.45;3.00;;;23.80;99.90;;;;;;5025662;28;20042;-48
2023/08/04 12:35:01;;;;;;;3.95;2.92;;;23.90;99.90;;;;;;5026838;28;20080;-44
2023/08/04 12:37:28;;;;;;;7.47;3.10;;;24.40;99.90;;;;;;5026817;28;20041;-46
2023/08/04 12:39:55;;;;;;;4.22;2.83;;;24.90;99.90;;;;;;5026156;28;20441;-45
2023/08/04 12:42:24;;;;;;;3.28;2.78;;;25.10;99.90;;;;;;5025002;28;20399;-44
2023/08/04 12:44:51;;;;;;;4.38;3.20;;;25.30;99.90;;;;;;5026243;28;20452;-49
2023/08/04 12:47:19;;;;;;;4.82;3.10;;;25.50;99.90;;;;;;5027246;28;20045;-49
2023/08/04 12:49:46;;;;;;;3.83;3.10;;;25.70;99.90;;;;;;5027364;28;20132;-45
2023/08/04 12:52:14;;;;;;;5.22;3.45;;;25.80;99.90;;;;;;5019960;28;20041;-44
2023/08/04 12:54:41;;;;;;;5.28;3.53;;;26.00;99.90;;;;;;5026715;28;20054;-43